createdAt,value
2019-03-06T00:00:25.123Z,78.49
2019-03-06T00:01:25.101Z,78.49
2019-03-06T00:02:25.101Z,78.59
2019-03-06T00:03:25.081Z,78.18
2019-03-06T00:04:25.075Z,78.59
2019-03-06T00:05:25.073Z,78.28
2019-03-06T00:06:25.046Z,78.08
2019-03-06T00:07:25.037Z,78.38
2019-03-06T00:08:25.051Z,78.90
2019-03-06T00:09:25.025Z,78.94
2019-03-06T00:10:25.022Z,79.35
2019-03-06T00:11:24.993Z,78.90
2019-03-06T00:12:24.983Z,79.04
2019-03-06T00:13:24.973Z,78.83
2019-03-06T00:14:25.024Z,78.69
2019-03-06T00:15:24.963Z,78.94
2019-03-06T00:16:24.945Z,78.80
2019-03-06T00:17:24.931Z,78.52
2019-03-06T00:18:24.926Z,78.42
2019-03-06T00:19:24.909Z,78.49
2019-03-06T00:20:24.922Z,78.42
2019-03-06T00:21:24.887Z,78.42
2019-03-06T00:22:24.877Z,78.28
2019-03-06T00:23:24.871Z,77.76
2019-03-06T00:24:24.855Z,77.87
2019-03-06T00:25:24.856Z,77.87
2019-03-06T00:26:24.870Z,78.28
2019-03-06T00:27:24.827Z,78.28
2019-03-06T00:28:24.827Z,78.31
2019-03-06T00:29:24.802Z,78.63
2019-03-06T00:30:24.806Z,78.63
2019-03-06T00:31:24.783Z,78.87
2019-03-06T00:32:24.793Z,78.73
2019-03-06T00:33:24.758Z,79.04
2019-03-06T00:34:24.749Z,78.94
2019-03-06T00:35:24.762Z,79.04
2019-03-06T00:36:24.727Z,79.25
2019-03-06T00:37:24.719Z,79.04
2019-03-06T00:38:24.724Z,79.04
2019-03-06T00:39:24.705Z,79.04
2019-03-06T00:40:24.686Z,79.18
2019-03-06T00:41:24.697Z,79.59
2019-03-06T00:42:24.664Z,79.80
2019-03-06T00:43:24.652Z,79.90
2019-03-06T00:44:24.664Z,79.59
2019-03-06T00:45:24.633Z,79.45
2019-03-06T00:46:24.636Z,79.25
2019-03-06T00:47:24.614Z,79.14
2019-03-06T00:48:24.608Z,78.94
2019-03-06T00:49:24.587Z,79.28
2019-03-06T00:50:24.612Z,79.04
2019-03-06T00:51:24.590Z,78.73
2019-03-06T00:52:24.556Z,78.94
2019-03-06T00:53:24.544Z,79.28
2019-03-06T00:54:24.536Z,78.97
2019-03-06T00:55:24.527Z,79.25
2019-03-06T00:56:24.545Z,79.59
2019-03-06T00:57:24.503Z,79.69
2019-03-06T00:58:25.140Z,80.11
2019-03-06T00:59:24.480Z,80.04
2019-03-06T01:00:24.470Z,80.25
2019-03-06T01:01:24.470Z,80.21
2019-03-06T01:02:24.468Z,80.00
2019-03-06T01:03:24.438Z,80.11
2019-03-06T01:04:24.429Z,80.56
2019-03-06T01:05:24.429Z,80.87
2019-03-06T01:06:24.417Z,80.46
2019-03-06T01:07:24.396Z,80.21
2019-03-06T01:08:24.407Z,79.90
2019-03-06T01:09:24.506Z,80.21
2019-03-06T01:10:24.390Z,80.00
2019-03-06T01:11:24.365Z,80.42
2019-03-06T01:12:24.369Z,80.62
2019-03-06T01:13:24.347Z,80.56
2019-03-06T01:14:24.352Z,80.66
2019-03-06T01:15:24.310Z,80.76
2019-03-06T01:16:24.314Z,81.07
2019-03-06T01:17:24.327Z,80.87
2019-03-06T01:18:24.279Z,81.18
2019-03-06T01:19:24.270Z,81.18
2019-03-06T01:20:24.256Z,81.18
2019-03-06T01:21:24.261Z,81.07
2019-03-06T01:22:24.257Z,80.76
2019-03-06T01:23:24.225Z,80.97
2019-03-06T01:24:24.216Z,81.18
2019-03-06T01:25:24.203Z,80.76
2019-03-06T01:26:24.220Z,80.80
2019-03-06T01:27:24.183Z,81.21
2019-03-06T01:28:24.239Z,81.52
2019-03-06T01:29:24.167Z,81.21
2019-03-06T01:30:24.152Z,81.11
2019-03-06T01:31:24.151Z,81.18
2019-03-06T01:32:24.130Z,81.07
2019-03-06T01:33:24.119Z,80.90
2019-03-06T01:34:24.135Z,81.01
2019-03-06T01:35:24.098Z,80.56
2019-03-06T01:36:24.099Z,80.70
2019-03-06T01:37:24.078Z,80.70
2019-03-06T01:38:24.067Z,80.80
2019-03-06T01:39:24.064Z,81.01
2019-03-06T01:40:24.067Z,81.01
2019-03-06T01:41:24.047Z,80.90
2019-03-06T01:42:24.028Z,80.90
2019-03-06T01:43:24.021Z,80.80
2019-03-06T01:44:24.004Z,80.80
2019-03-06T01:45:23.994Z,80.49
2019-03-06T01:46:24.000Z,80.39
2019-03-06T01:47:23.978Z,80.39
2019-03-06T01:48:23.965Z,80.80
2019-03-06T01:49:23.950Z,80.70
2019-03-06T01:50:23.940Z,80.90
2019-03-06T01:51:23.941Z,80.49
2019-03-06T01:52:23.926Z,80.29
2019-03-06T01:53:23.914Z,80.60
2019-03-06T01:54:23.898Z,80.60
2019-03-06T01:55:23.888Z,80.60
2019-03-06T01:56:23.891Z,80.29
2019-03-06T01:57:23.869Z,80.29
2019-03-06T01:58:23.901Z,80.29
2019-03-06T01:59:23.847Z,80.18
2019-03-06T02:00:23.838Z,79.77
2019-03-06T02:01:23.825Z,79.87
2019-03-06T02:02:23.828Z,79.63
2019-03-06T02:03:23.804Z,79.87
2019-03-06T02:04:23.829Z,80.18
2019-03-06T02:05:23.786Z,80.18
2019-03-06T02:06:23.776Z,80.60
2019-03-06T02:07:23.776Z,80.60
2019-03-06T02:08:23.752Z,80.29
2019-03-06T02:09:23.742Z,80.39
2019-03-06T02:10:23.757Z,80.60
2019-03-06T02:11:23.724Z,80.39
2019-03-06T02:12:23.723Z,80.90
2019-03-06T02:13:23.699Z,80.70
2019-03-06T02:14:23.695Z,80.63
2019-03-06T02:15:23.679Z,80.74
2019-03-06T02:16:23.676Z,80.80
2019-03-06T02:17:23.670Z,80.70
2019-03-06T02:18:23.649Z,80.90
2019-03-06T02:19:23.641Z,80.49
2019-03-06T02:20:23.627Z,80.63
2019-03-06T02:21:23.620Z,80.84
2019-03-06T02:22:23.643Z,81.67
2019-03-06T02:23:23.595Z,81.46
2019-03-06T02:24:23.587Z,81.67
2019-03-06T02:25:23.577Z,81.15
2019-03-06T02:26:23.566Z,81.05
2019-03-06T02:27:23.566Z,81.15
2019-03-06T02:28:23.558Z,80.94
2019-03-06T02:29:23.563Z,81.05
2019-03-06T02:30:23.526Z,81.25
2019-03-06T02:31:23.518Z,81.25
2019-03-06T02:32:23.513Z,81.25
2019-03-06T02:33:23.501Z,81.25
2019-03-06T02:34:23.484Z,80.88
2019-03-06T02:35:23.486Z,80.84
2019-03-06T02:36:23.475Z,81.25
2019-03-06T02:37:23.467Z,81.05
2019-03-06T02:38:23.446Z,81.35
2019-03-06T02:39:23.427Z,80.53
2019-03-06T02:40:23.418Z,80.63
2019-03-06T02:41:23.406Z,80.84
2019-03-06T02:42:23.426Z,80.43
2019-03-06T02:43:23.388Z,80.84
2019-03-06T02:44:23.380Z,80.63
2019-03-06T02:45:23.368Z,80.84
2019-03-06T02:46:23.353Z,80.94
2019-03-06T02:47:23.354Z,80.84
2019-03-06T02:48:23.358Z,80.63
2019-03-06T02:49:23.322Z,80.63
2019-03-06T02:50:23.313Z,81.09
2019-03-06T02:51:23.312Z,81.29
2019-03-06T02:52:23.302Z,81.29
2019-03-06T02:53:23.281Z,81.25
2019-03-06T02:54:23.307Z,80.98
2019-03-06T02:55:23.262Z,80.84
2019-03-06T02:56:23.249Z,81.05
2019-03-06T02:57:23.248Z,80.63
2019-03-06T02:58:23.230Z,80.67
2019-03-06T02:59:23.217Z,80.43
2019-03-06T03:00:23.219Z,80.53
2019-03-06T03:01:23.197Z,80.94
2019-03-06T03:02:23.196Z,80.94
2019-03-06T03:03:23.177Z,81.05
2019-03-06T03:04:23.164Z,80.88
2019-03-06T03:05:23.155Z,81.39
2019-03-06T03:06:23.175Z,81.70
2019-03-06T03:07:23.145Z,81.09
2019-03-06T03:08:23.127Z,81.29
2019-03-06T03:09:23.129Z,80.98
2019-03-06T03:10:23.106Z,80.67
2019-03-06T03:11:23.091Z,80.57
2019-03-06T03:12:23.123Z,81.49
2019-03-06T03:13:23.070Z,80.98
2019-03-06T03:14:23.058Z,80.98
2019-03-06T03:15:23.048Z,81.09
2019-03-06T03:16:23.043Z,80.98
2019-03-06T03:17:23.221Z,80.67
2019-03-06T03:18:23.053Z,80.67
2019-03-06T03:19:23.009Z,80.88
2019-03-06T03:20:23.000Z,80.57
2019-03-06T03:21:22.988Z,80.36
2019-03-06T03:22:22.974Z,80.22
2019-03-06T03:23:22.974Z,80.32
2019-03-06T03:24:22.967Z,79.80
2019-03-06T03:25:22.941Z,79.70
2019-03-06T03:26:22.937Z,79.80
2019-03-06T03:27:22.921Z,79.53
2019-03-06T03:28:22.924Z,79.84
2019-03-06T03:29:22.901Z,79.74
2019-03-06T03:30:22.922Z,79.49
2019-03-06T03:31:22.882Z,79.49
2019-03-06T03:32:22.877Z,79.19
2019-03-06T03:33:22.872Z,79.08
2019-03-06T03:34:22.874Z,79.33
2019-03-06T03:35:22.837Z,79.63
2019-03-06T03:36:22.848Z,79.74
2019-03-06T03:37:22.819Z,79.43
2019-03-06T03:38:22.820Z,79.43
2019-03-06T03:39:22.796Z,79.53
2019-03-06T03:40:22.796Z,79.22
2019-03-06T03:41:22.774Z,79.77
2019-03-06T03:42:22.783Z,79.60
2019-03-06T03:43:22.765Z,81.09
2019-03-06T03:44:22.745Z,81.34
2019-03-06T03:45:22.737Z,82.62
2019-03-06T03:46:22.728Z,84.21
2019-03-06T03:47:22.711Z,84.46
2019-03-06T03:48:22.733Z,85.74
2019-03-06T03:49:22.690Z,85.47
2019-03-06T03:50:22.679Z,86.24
2019-03-06T03:51:22.668Z,87.90
2019-03-06T03:52:22.660Z,88.46
2019-03-06T03:53:22.662Z,89.33
2019-03-06T03:54:22.669Z,88.64
2019-03-06T03:55:22.631Z,89.58
2019-03-06T03:56:22.618Z,91.04
2019-03-06T03:57:22.604Z,92.02
2019-03-06T03:58:22.607Z,91.81
2019-03-06T03:59:22.586Z,91.75
2019-03-06T04:00:22.625Z,92.37
2019-03-06T04:01:22.561Z,93.20
2019-03-06T04:02:22.555Z,92.52
2019-03-06T04:03:22.565Z,93.04
2019-03-06T04:04:22.539Z,93.18
2019-03-06T04:05:22.528Z,93.08
2019-03-06T04:06:22.539Z,94.02
2019-03-06T04:07:22.499Z,94.43
2019-03-06T04:08:22.504Z,95.06
2019-03-06T04:09:22.482Z,94.02
2019-03-06T04:10:22.475Z,94.79
2019-03-06T04:11:22.465Z,95.10
2019-03-06T04:12:22.476Z,95.62
2019-03-06T04:13:22.454Z,95.31
2019-03-06T04:14:22.425Z,95.52
2019-03-06T04:15:22.422Z,95.10
2019-03-06T04:16:22.405Z,95.42
2019-03-06T04:17:22.404Z,95.25
2019-03-06T04:18:22.418Z,95.56
2019-03-06T04:19:22.382Z,95.98
2019-03-06T04:20:22.371Z,96.19
2019-03-06T04:21:22.365Z,96.61
2019-03-06T04:22:22.340Z,97.34
2019-03-06T04:23:22.335Z,97.34
2019-03-06T04:24:22.362Z,97.03
2019-03-06T04:25:22.309Z,97.24
2019-03-06T04:26:22.299Z,96.71
2019-03-06T04:27:22.291Z,96.40
2019-03-06T04:28:22.280Z,96.66
2019-03-06T04:29:22.350Z,96.44
2019-03-06T04:30:22.257Z,96.17
2019-03-06T04:31:22.248Z,96.23
2019-03-06T04:32:22.237Z,96.44
2019-03-06T04:33:22.319Z,96.91
2019-03-06T04:34:22.227Z,97.01
2019-03-06T04:35:22.226Z,97.53
2019-03-06T04:36:22.195Z,97.22
2019-03-06T04:37:22.185Z,96.84
2019-03-06T04:38:22.175Z,97.27
2019-03-06T04:39:22.178Z,97.31
2019-03-06T04:40:22.154Z,97.31
2019-03-06T04:41:22.163Z,97.83
2019-03-06T04:42:22.132Z,97.58
2019-03-06T04:43:22.123Z,97.89
2019-03-06T04:44:22.126Z,98.14
2019-03-06T04:45:22.108Z,98.72
2019-03-06T04:46:22.093Z,98.52
2019-03-06T04:47:22.101Z,97.99
2019-03-06T04:48:22.073Z,98.41
2019-03-06T04:49:22.076Z,98.56
2019-03-06T04:50:22.053Z,98.35
2019-03-06T04:51:22.039Z,98.41
2019-03-06T04:52:22.028Z,97.89
2019-03-06T04:53:22.031Z,98.77
2019-03-06T04:54:22.025Z,98.46
2019-03-06T04:55:22.000Z,98.56
2019-03-06T04:56:21.991Z,98.92
2019-03-06T04:57:21.977Z,98.08
2019-03-06T04:58:21.972Z,97.98
2019-03-06T04:59:21.989Z,98.34
2019-03-06T05:00:21.948Z,98.44
2019-03-06T05:01:21.937Z,98.97
2019-03-06T05:02:21.930Z,98.92
2019-03-06T05:03:21.920Z,98.71
2019-03-06T05:04:21.917Z,98.92
2019-03-06T05:05:21.926Z,98.75
2019-03-06T05:06:21.893Z,98.86
2019-03-06T05:07:21.874Z,98.92
2019-03-06T05:08:21.869Z,98.97
2019-03-06T05:09:21.871Z,98.97
2019-03-06T05:10:21.851Z,98.97
2019-03-06T05:11:21.859Z,99.28
2019-03-06T05:12:21.822Z,99.65
2019-03-06T05:13:21.817Z,99.86
2019-03-06T05:14:21.801Z,99.99
2019-03-06T05:15:21.806Z,99.56
2019-03-06T05:16:21.795Z,99.99
2019-03-06T05:17:21.831Z,99.93
2019-03-06T05:18:21.759Z,99.99
2019-03-06T05:19:21.751Z,99.60
2019-03-06T05:20:21.750Z,98.22
2019-03-06T05:21:21.732Z,95.47
2019-03-06T05:22:21.717Z,92.36
2019-03-06T05:23:21.723Z,91.43
2019-03-06T05:24:21.698Z,90.08
2019-03-06T05:25:21.699Z,89.00
2019-03-06T05:26:21.677Z,87.92
2019-03-06T05:27:21.670Z,86.74
2019-03-06T05:28:21.656Z,85.50
2019-03-06T05:29:21.700Z,85.08
2019-03-06T05:30:21.647Z,84.52
2019-03-06T05:31:21.626Z,83.80
2019-03-06T05:32:21.618Z,83.14
2019-03-06T05:33:21.604Z,82.31
2019-03-06T05:34:21.608Z,82.68
2019-03-06T05:35:21.626Z,82.31
2019-03-06T05:36:21.574Z,81.30
2019-03-06T05:37:21.575Z,80.71
2019-03-06T05:38:21.561Z,80.26
2019-03-06T05:39:21.542Z,80.05
2019-03-06T05:40:21.546Z,79.64
2019-03-06T05:41:21.551Z,79.74
2019-03-06T05:42:21.510Z,79.85
2019-03-06T05:43:21.500Z,80.05
2019-03-06T05:44:21.492Z,80.51
2019-03-06T05:45:21.492Z,81.06
2019-03-06T05:46:21.496Z,81.89
2019-03-06T05:47:21.482Z,82.34
2019-03-06T05:48:21.455Z,83.01
2019-03-06T05:49:21.436Z,84.47
2019-03-06T05:50:21.446Z,85.59
2019-03-06T05:51:21.471Z,85.80
2019-03-06T05:52:21.406Z,86.40
2019-03-06T05:53:21.477Z,87.85
2019-03-06T05:54:21.392Z,88.83
2019-03-06T05:55:21.395Z,89.81
2019-03-06T05:56:21.385Z,90.06
2019-03-06T05:57:21.353Z,90.72
2019-03-06T05:58:21.365Z,90.20
2019-03-06T05:59:21.335Z,90.52
2019-03-06T06:00:21.326Z,91.81
2019-03-06T06:01:21.326Z,92.37
2019-03-06T06:02:21.304Z,92.27
2019-03-06T06:03:21.291Z,93.10
2019-03-06T06:04:21.336Z,93.63
2019-03-06T06:05:21.270Z,93.73
2019-03-06T06:06:21.275Z,93.77
2019-03-06T06:07:21.255Z,94.82
2019-03-06T06:08:21.237Z,95.55
2019-03-06T06:09:21.229Z,96.07
2019-03-06T06:10:21.255Z,95.86
2019-03-06T06:11:21.219Z,95.55
2019-03-06T06:12:21.199Z,95.55
2019-03-06T06:13:21.187Z,96.38
2019-03-06T06:14:21.180Z,96.49
2019-03-06T06:15:21.166Z,96.34
2019-03-06T06:16:21.188Z,96.13
2019-03-06T06:17:21.168Z,95.92
2019-03-06T06:18:21.142Z,95.92
2019-03-06T06:19:21.132Z,95.97
2019-03-06T06:20:21.120Z,95.65
2019-03-06T06:21:21.115Z,96.13
2019-03-06T06:22:21.126Z,96.13
2019-03-06T06:23:21.084Z,95.82
2019-03-06T06:24:21.072Z,96.13
2019-03-06T06:25:21.065Z,95.92
2019-03-06T06:26:21.064Z,95.88
2019-03-06T06:27:21.041Z,95.78
2019-03-06T06:28:21.039Z,95.88
2019-03-06T06:29:21.021Z,95.46
2019-03-06T06:30:22.127Z,95.46
2019-03-06T06:31:21.009Z,95.10
2019-03-06T06:32:20.988Z,94.69
2019-03-06T06:33:20.994Z,94.58
2019-03-06T06:34:20.994Z,94.69
2019-03-06T06:35:20.961Z,95.33
2019-03-06T06:36:20.960Z,94.18
2019-03-06T06:37:20.936Z,93.87
2019-03-06T06:38:20.925Z,93.83
2019-03-06T06:39:20.917Z,93.33
2019-03-06T06:40:20.920Z,92.35
2019-03-06T06:41:20.896Z,91.27
2019-03-06T06:42:20.902Z,88.94
2019-03-06T06:43:20.879Z,87.76
2019-03-06T06:44:20.869Z,87.09
2019-03-06T06:45:20.855Z,86.43
2019-03-06T06:46:20.901Z,85.56
2019-03-06T06:47:20.842Z,85.35
2019-03-06T06:48:20.822Z,84.42
2019-03-06T06:49:20.816Z,84.73
2019-03-06T06:50:20.799Z,84.28
2019-03-06T06:51:20.792Z,83.86
2019-03-06T06:52:20.790Z,83.76
2019-03-06T06:53:20.815Z,83.97
2019-03-06T06:54:20.760Z,83.86
2019-03-06T06:55:20.764Z,83.51
2019-03-06T06:56:20.735Z,82.48
2019-03-06T06:57:20.796Z,82.37
2019-03-06T06:58:20.716Z,82.23
2019-03-06T06:59:20.730Z,82.44
2019-03-06T07:00:20.696Z,82.71
2019-03-06T07:01:20.685Z,81.78
2019-03-06T07:02:20.685Z,82.09
2019-03-06T07:03:22.303Z,82.09
2019-03-06T07:04:20.657Z,82.40
2019-03-06T07:05:20.658Z,81.95
2019-03-06T07:06:20.631Z,81.64
2019-03-06T07:07:20.634Z,81.43
2019-03-06T07:08:20.617Z,81.78
2019-03-06T07:09:20.600Z,82.09
2019-03-06T07:10:20.595Z,80.46
2019-03-06T07:11:20.629Z,79.25
2019-03-06T07:12:20.589Z,78.39
2019-03-06T07:13:20.567Z,77.36
2019-03-06T07:14:20.546Z,76.43
2019-03-06T07:15:20.538Z,76.53
2019-03-06T07:16:20.527Z,76.08
2019-03-06T07:17:20.540Z,76.32
2019-03-06T07:18:20.506Z,75.98
2019-03-06T07:19:20.494Z,76.39
2019-03-06T07:20:20.485Z,76.64
2019-03-06T07:21:20.486Z,76.64
2019-03-06T07:22:20.477Z,76.64
2019-03-06T07:23:20.460Z,77.15
2019-03-06T07:24:20.442Z,77.22
2019-03-06T07:25:20.431Z,76.39
2019-03-06T07:26:20.419Z,76.08
2019-03-06T07:27:20.422Z,76.25
2019-03-06T07:28:20.401Z,76.32
2019-03-06T07:29:20.395Z,76.12
2019-03-06T07:30:20.400Z,75.70
2019-03-06T07:31:20.376Z,75.46
2019-03-06T07:32:20.368Z,76.29
2019-03-06T07:33:20.356Z,74.57
2019-03-06T07:34:20.350Z,73.81
2019-03-06T07:35:20.329Z,75.77
2019-03-06T07:36:20.357Z,74.63
2019-03-06T07:37:28.283Z,74.19
2019-03-06T07:38:21.299Z,74.77
2019-03-06T07:39:20.295Z,72.54
2019-03-06T07:40:20.341Z,71.82
2019-03-06T07:41:20.269Z,72.61
2019-03-06T07:42:20.322Z,71.55
2019-03-06T07:43:20.240Z,71.31
2019-03-06T07:44:29.584Z,69.84
2019-03-06T07:45:21.219Z,68.61
2019-03-06T07:46:20.209Z,68.06
2019-03-06T07:47:20.231Z,69.29
2019-03-06T07:48:20.234Z,68.68
2019-03-06T07:49:20.181Z,68.85
2019-03-06T07:50:20.168Z,70.73
2019-03-06T07:51:20.160Z,72.17
2019-03-06T07:52:20.146Z,70.73
2019-03-06T07:53:20.147Z,69.36
2019-03-06T07:54:20.162Z,69.12
2019-03-06T07:55:20.114Z,67.92
2019-03-06T07:56:20.102Z,69.90
2019-03-06T07:57:20.096Z,69.80
2019-03-06T07:58:20.108Z,71.17
2019-03-06T07:59:20.070Z,68.85
2019-03-06T08:00:20.067Z,69.32
2019-03-06T08:01:20.074Z,66.87
2019-03-06T08:02:20.039Z,65.00
2019-03-06T08:03:20.040Z,64.65
2019-03-06T08:04:20.017Z,65.67
2019-03-06T08:05:20.006Z,66.49
2019-03-06T08:06:20.040Z,66.56
2019-03-06T08:07:20.004Z,66.80
2019-03-06T08:08:19.991Z,67.21
2019-03-06T08:09:19.966Z,66.08
2019-03-06T08:10:19.955Z,67.83
2019-03-06T08:11:19.943Z,67.18
2019-03-06T08:12:19.942Z,67.94
2019-03-06T08:13:19.960Z,65.55
2019-03-06T08:14:22.436Z,62.99
2019-03-06T08:15:19.900Z,63.95
2019-03-06T08:16:19.904Z,64.16
2019-03-06T08:17:19.878Z,62.90
2019-03-06T08:18:19.878Z,61.88
2019-03-06T08:19:19.869Z,62.26
2019-03-06T08:20:19.931Z,60.05
2019-03-06T08:21:19.861Z,57.50
2019-03-06T08:22:19.848Z,58.83
2019-03-06T08:23:19.843Z,58.48
2019-03-06T08:24:19.846Z,60.30
2019-03-06T08:25:19.806Z,60.30
2019-03-06T08:26:19.809Z,63.17
2019-03-06T08:27:19.794Z,62.39
2019-03-06T08:28:19.827Z,63.18
2019-03-06T08:29:19.770Z,59.78
2019-03-06T08:30:19.769Z,62.74
2019-03-06T08:31:19.746Z,58.39
2019-03-06T08:32:19.733Z,57.45
2019-03-06T08:33:19.729Z,59.28
2019-03-06T08:34:19.703Z,59.74
2019-03-06T08:35:19.684Z,55.18
2019-03-06T08:36:19.686Z,56.35
2019-03-06T08:37:19.849Z,57.78
2019-03-06T08:38:19.684Z,56.43
2019-03-06T08:39:19.660Z,57.48
2019-03-06T08:40:19.651Z,59.25
2019-03-06T08:41:19.622Z,61.35
2019-03-06T08:42:19.612Z,62.68
2019-03-06T08:43:19.636Z,64.18
2019-03-06T08:44:19.601Z,64.80
2019-03-06T08:45:19.602Z,63.13
2019-03-06T08:46:19.590Z,61.80
2019-03-06T08:47:19.601Z,61.40
2019-03-06T08:48:19.572Z,62.32
2019-03-06T08:49:19.537Z,62.85
2019-03-06T08:50:19.544Z,62.92
2019-03-06T08:51:19.521Z,63.76
2019-03-06T08:52:19.515Z,65.30
2019-03-06T08:53:19.530Z,65.92
2019-03-06T08:54:19.483Z,66.74
2019-03-06T08:55:19.486Z,66.63
2019-03-06T08:56:19.538Z,65.78
2019-03-06T08:57:19.467Z,65.48
2019-03-06T08:58:19.467Z,66.19
2019-03-06T08:59:19.443Z,65.51
2019-03-06T09:00:19.442Z,67.05
2019-03-06T09:01:19.418Z,68.35
2019-03-06T09:02:19.404Z,66.60
2019-03-06T09:03:19.439Z,66.74
2019-03-06T09:04:19.377Z,66.87
2019-03-06T09:05:19.369Z,68.99
2019-03-06T09:06:19.356Z,66.84
2019-03-06T09:07:19.345Z,66.94
2019-03-06T09:08:19.388Z,67.43
2019-03-06T09:09:19.331Z,67.52
2019-03-06T09:10:19.315Z,67.11
2019-03-06T09:11:19.301Z,65.48
2019-03-06T09:12:19.291Z,67.25
2019-03-06T09:13:19.290Z,67.25
2019-03-06T09:14:19.316Z,69.10
2019-03-06T09:15:19.272Z,68.96
2019-03-06T09:16:19.253Z,66.81
2019-03-06T09:17:19.241Z,66.67
2019-03-06T09:18:19.235Z,67.76
2019-03-06T09:19:19.226Z,68.68
2019-03-06T09:20:19.232Z,68.55
2019-03-06T09:21:19.238Z,70.47
2019-03-06T09:22:19.192Z,68.28
2019-03-06T09:23:23.196Z,66.41
2019-03-06T09:24:19.192Z,66.72
2019-03-06T09:25:19.185Z,65.01
2019-03-06T09:26:19.143Z,64.98
2019-03-06T09:27:19.284Z,65.36
2019-03-06T09:28:20.615Z,64.84
2019-03-06T09:29:19.128Z,65.43
2019-03-06T09:30:19.753Z,65.02
2019-03-06T09:31:19.128Z,64.89
2019-03-06T09:32:19.075Z,64.45
2019-03-06T09:33:19.071Z,63.29
2019-03-06T09:34:19.081Z,64.79
2019-03-06T09:35:19.070Z,63.03
2019-03-06T09:36:19.153Z,62.14
2019-03-06T09:37:19.034Z,62.07
2019-03-06T09:38:19.065Z,60.69
2019-03-06T09:39:19.020Z,62.71
2019-03-06T09:40:18.993Z,62.40
2019-03-06T09:41:19.006Z,60.67
2019-03-06T09:42:18.983Z,62.02
2019-03-06T09:43:19.151Z,62.51
2019-03-06T09:44:18.967Z,62.13
2019-03-06T09:45:18.943Z,65.57
2019-03-06T09:46:18.928Z,62.81
2019-03-06T09:47:18.931Z,63.49
2019-03-06T09:48:18.906Z,60.64
2019-03-06T09:49:18.907Z,61.08
2019-03-06T09:50:18.992Z,62.92
2019-03-06T09:51:18.883Z,62.81
2019-03-06T09:52:18.862Z,62.71
2019-03-06T09:53:18.860Z,62.10
2019-03-06T09:54:18.873Z,62.10
2019-03-06T09:55:18.836Z,62.68
2019-03-06T09:56:18.823Z,60.57
2019-03-06T09:57:18.812Z,60.16
2019-03-06T09:58:18.867Z,61.18
2019-03-06T09:59:18.802Z,60.16
2019-03-06T10:00:18.809Z,62.48
2019-03-06T10:01:18.763Z,61.87
2019-03-06T10:02:18.769Z,60.94
2019-03-06T10:03:18.777Z,62.30
2019-03-06T10:04:18.752Z,62.04
2019-03-06T10:05:18.722Z,60.99
2019-03-06T10:06:18.708Z,60.83
2019-03-06T10:07:18.700Z,59.91
2019-03-06T10:08:18.769Z,59.99
2019-03-06T10:09:18.741Z,60.47
2019-03-06T10:10:18.665Z,60.21
2019-03-06T10:11:20.219Z,58.15
2019-03-06T10:12:18.659Z,57.84
2019-03-06T10:13:18.643Z,55.27
2019-03-06T10:14:18.659Z,57.48
2019-03-06T10:15:18.624Z,54.90
2019-03-06T10:16:18.600Z,54.33
2019-03-06T10:17:18.590Z,52.11
2019-03-06T10:18:18.579Z,52.23
2019-03-06T10:19:18.577Z,53.58
2019-03-06T10:20:25.157Z,51.80
2019-03-06T10:21:19.582Z,53.27
2019-03-06T10:22:18.534Z,52.18
2019-03-06T10:23:18.530Z,52.66
2019-03-06T10:24:18.515Z,54.44
2019-03-06T10:25:18.511Z,56.32
2019-03-06T10:26:18.500Z,54.26
2019-03-06T10:27:18.480Z,56.44
2019-03-06T10:28:27.528Z,55.63
2019-03-06T10:29:19.456Z,54.26
2019-03-06T10:30:18.792Z,56.39
2019-03-06T10:31:18.440Z,55.07
2019-03-06T10:32:18.429Z,55.38
2019-03-06T10:33:18.415Z,57.21
2019-03-06T10:34:18.402Z,55.73
2019-03-06T10:35:18.410Z,53.63
2019-03-06T10:36:18.381Z,54.64
2019-03-06T10:37:18.444Z,53.34
2019-03-06T10:38:18.354Z,58.91
2019-03-06T10:39:18.351Z,56.11
2019-03-06T10:40:18.422Z,53.47
2019-03-06T10:41:18.323Z,54.05
2019-03-06T10:42:18.349Z,54.64
2019-03-06T10:43:18.301Z,55.10
2019-03-06T10:44:18.297Z,52.72
2019-03-06T10:45:18.354Z,53.22
2019-03-06T10:46:18.269Z,52.48
2019-03-06T10:47:18.289Z,51.37
2019-03-06T10:48:18.249Z,51.88
2019-03-06T10:49:18.275Z,51.82
2019-03-06T10:50:26.376Z,51.72
2019-03-06T10:51:19.279Z,54.57
2019-03-06T10:52:18.239Z,52.51
2019-03-06T10:53:18.195Z,52.41
2019-03-06T10:54:18.189Z,52.31
2019-03-06T10:55:18.229Z,50.74
2019-03-06T10:56:18.231Z,51.42
2019-03-06T10:57:18.152Z,52.81
2019-03-06T10:58:18.194Z,52.33
2019-03-06T10:59:18.135Z,49.80
2019-03-06T11:00:18.119Z,52.76
2019-03-06T11:01:18.131Z,51.50
2019-03-06T11:02:18.208Z,54.94
2019-03-06T11:03:18.109Z,52.86
2019-03-06T11:04:18.093Z,54.53
2019-03-06T11:05:18.075Z,51.55
2019-03-06T11:06:18.072Z,52.11
2019-03-06T11:07:18.048Z,53.96
2019-03-06T11:08:18.037Z,52.72
2019-03-06T11:09:18.056Z,51.09
2019-03-06T11:10:23.945Z,52.01
2019-03-06T11:11:19.082Z,50.79
2019-03-06T11:12:17.990Z,55.15
2019-03-06T11:13:17.994Z,49.89
2019-03-06T11:14:17.976Z,48.21
2019-03-06T11:15:17.972Z,49.77
2019-03-06T11:16:18.110Z,46.75
2019-03-06T11:17:17.939Z,47.94
2019-03-06T11:18:17.925Z,46.73
2019-03-06T11:19:17.955Z,47.07
2019-03-06T11:20:17.944Z,50.62
2019-03-06T11:21:17.910Z,50.88
2019-03-06T11:22:17.884Z,47.09
2019-03-06T11:23:17.896Z,48.93
2019-03-06T11:24:17.867Z,50.70
2019-03-06T11:25:17.917Z,50.45
2019-03-06T11:26:17.943Z,49.92
2019-03-06T11:27:17.829Z,50.75
2019-03-06T11:28:17.834Z,48.37
2019-03-06T11:29:19.357Z,52.11
2019-03-06T11:30:17.881Z,51.98
2019-03-06T11:31:17.809Z,49.04
2019-03-06T11:32:17.787Z,54.05
2019-03-06T11:33:17.767Z,51.33
2019-03-06T11:34:17.759Z,51.33
2019-03-06T11:35:17.744Z,49.79
2019-03-06T11:36:17.756Z,51.59
2019-03-06T11:37:17.720Z,48.41
2019-03-06T11:38:17.723Z,49.56
2019-03-06T11:39:17.711Z,50.72
2019-03-06T11:40:17.689Z,51.20
2019-03-06T11:41:17.774Z,51.35
2019-03-06T11:42:17.686Z,50.82
2019-03-06T11:43:17.658Z,50.95
2019-03-06T11:44:17.650Z,49.56
2019-03-06T11:45:17.635Z,48.78
2019-03-06T11:46:17.650Z,51.66
2019-03-06T11:47:17.615Z,49.39
2019-03-06T11:48:17.601Z,48.66
2019-03-06T11:49:17.590Z,48.99
2019-03-06T11:50:17.583Z,49.62
2019-03-06T11:51:17.645Z,50.04
2019-03-06T11:52:17.559Z,49.01
2019-03-06T11:53:17.545Z,49.01
2019-03-06T11:54:17.541Z,49.84
2019-03-06T11:55:17.535Z,52.11
2019-03-06T11:56:17.536Z,51.07
2019-03-06T11:57:17.504Z,51.86
2019-03-06T11:58:17.497Z,51.43
2019-03-06T11:59:17.500Z,49.62
2019-03-06T12:00:17.494Z,50.93
2019-03-06T12:01:17.476Z,49.57
2019-03-06T12:02:17.454Z,49.04
2019-03-06T12:03:17.462Z,51.06
2019-03-06T12:04:17.443Z,52.04
2019-03-06T12:05:17.444Z,49.15
2019-03-06T12:06:17.419Z,49.67
2019-03-06T12:07:17.410Z,51.06
2019-03-06T12:08:17.382Z,48.94
2019-03-06T12:09:17.372Z,51.46
2019-03-06T12:10:17.383Z,47.96
2019-03-06T12:11:17.376Z,51.68
2019-03-06T12:12:17.342Z,51.38
2019-03-06T12:13:17.358Z,50.17
2019-03-06T12:14:17.330Z,49.01
2019-03-06T12:15:17.316Z,54.63
2019-03-06T12:16:17.331Z,49.19
2019-03-06T12:17:17.323Z,49.69
2019-03-06T12:18:17.291Z,50.02
2019-03-06T12:19:17.271Z,50.42
2019-03-06T12:20:17.257Z,48.96
2019-03-06T12:21:17.250Z,50.57
2019-03-06T12:22:17.276Z,52.59
2019-03-06T12:23:17.225Z,52.19
2019-03-06T12:24:17.309Z,51.89
2019-03-06T12:25:17.203Z,49.16
2019-03-06T12:26:17.200Z,50.67
2019-03-06T12:27:17.239Z,49.28
2019-03-06T12:28:17.183Z,48.30
2019-03-06T12:29:17.169Z,48.39
2019-03-06T12:30:17.160Z,51.00
2019-03-06T12:31:17.151Z,50.70
2019-03-06T12:32:17.140Z,49.16
2019-03-06T12:33:17.174Z,50.90
2019-03-06T12:34:17.114Z,49.16
2019-03-06T12:35:17.113Z,49.76
2019-03-06T12:36:17.096Z,47.97
2019-03-06T12:37:17.101Z,49.01
2019-03-06T12:38:17.066Z,48.17
2019-03-06T12:39:17.058Z,49.01
2019-03-06T12:40:17.065Z,49.10
2019-03-06T12:41:17.078Z,49.69
2019-03-06T12:42:17.026Z,49.76
2019-03-06T12:43:17.021Z,48.13
2019-03-06T12:44:17.060Z,51.13
2019-03-06T12:45:16.983Z,47.30
2019-03-06T12:46:23.501Z,47.50
2019-03-06T12:47:18.027Z,47.04
2019-03-06T12:48:17.005Z,47.24
2019-03-06T12:49:16.956Z,47.47
2019-03-06T12:50:16.964Z,48.37
2019-03-06T12:51:16.937Z,47.87
2019-03-06T12:52:16.916Z,49.66